createdAt,value
2018-10-16T00:00:18.115Z,26.90
2018-10-16T00:02:48.856Z,31.10
2018-10-16T00:05:19.424Z,26.67
2018-10-16T00:07:49.800Z,26.80
2018-10-16T00:10:25.034Z,25.40
2018-10-16T00:12:55.492Z,26.20
2018-10-16T00:15:25.791Z,26.70
2018-10-16T00:17:56.257Z,25.50
2018-10-16T00:20:26.618Z,26.23
2018-10-16T00:22:56.953Z,27.53
2018-10-16T00:25:27.436Z,24.73
2018-10-16T00:27:59.390Z,25.23
2018-10-16T00:30:29.709Z,26.10
2018-10-16T00:33:00.139Z,24.37
2018-10-16T00:35:30.548Z,25.53
2018-10-16T00:38:01.000Z,26.80
2018-10-16T00:40:31.265Z,27.37
2018-10-16T00:43:02.239Z,27.73
2018-10-16T00:45:32.557Z,26.20
2018-10-16T00:48:03.120Z,30.20
2018-10-16T00:50:33.634Z,28.13
2018-10-16T00:53:04.144Z,25.17
2018-10-16T00:55:34.651Z,27.00
2018-10-16T00:58:05.153Z,27.07
2018-10-16T01:00:35.508Z,24.47
2018-10-16T01:03:06.211Z,26.17
2018-10-16T01:05:36.570Z,23.73
2018-10-16T01:08:06.931Z,28.07
2018-10-16T01:10:37.449Z,26.33
2018-10-16T01:13:07.966Z,24.90
2018-10-16T01:15:38.395Z,25.80
2018-10-16T01:18:08.684Z,30.03
2018-10-16T01:20:39.058Z,25.93
2018-10-16T01:23:09.603Z,30.17
2018-10-16T01:25:40.053Z,28.37
2018-10-16T01:28:10.568Z,24.17
2018-10-16T01:30:40.886Z,25.77
2018-10-16T01:33:11.180Z,25.27
2018-10-16T01:35:41.599Z,25.67
2018-10-16T01:38:12.029Z,24.60
2018-10-16T01:40:42.459Z,22.37
2018-10-16T01:43:13.023Z,26.13
2018-10-16T01:45:43.307Z,22.37
2018-10-16T01:48:13.703Z,24.97
2018-10-16T01:50:44.147Z,26.33
2018-10-16T01:53:14.609Z,25.80
2018-10-16T01:55:45.223Z,24.47
2018-10-16T01:58:15.780Z,24.20
2018-10-16T02:00:46.187Z,29.43
2018-10-16T02:03:16.686Z,27.90
2018-10-16T02:05:47.000Z,24.50
2018-10-16T02:08:17.398Z,24.80
2018-10-16T02:10:48.395Z,24.07
2018-10-16T02:13:18.858Z,22.37
2018-10-16T02:15:49.252Z,26.27
2018-10-16T02:18:19.593Z,23.37
2018-10-16T02:20:49.866Z,24.30
2018-10-16T02:23:20.375Z,22.03
2018-10-16T02:25:50.769Z,22.93
2018-10-16T02:28:21.348Z,24.33
2018-10-16T02:30:51.552Z,24.07
2018-10-16T02:33:21.996Z,23.27
2018-10-16T02:35:52.352Z,24.80
2018-10-16T02:38:22.907Z,30.93
2018-10-16T02:40:53.341Z,24.47
2018-10-16T02:43:23.683Z,28.90
2018-10-16T02:45:54.161Z,22.90
2018-10-16T02:48:24.638Z,27.87
2018-10-16T02:50:54.939Z,24.13
2018-10-16T02:53:25.285Z,24.37
2018-10-16T02:55:55.696Z,25.00
2018-10-16T02:58:26.116Z,23.70
2018-10-16T03:00:56.326Z,25.03
2018-10-16T03:03:26.525Z,26.57
2018-10-16T03:05:56.958Z,23.33
2018-10-16T03:08:27.358Z,22.40
2018-10-16T03:10:57.836Z,36.77
2018-10-16T03:13:28.553Z,27.70
2018-10-16T03:15:59.007Z,24.00
2018-10-16T03:18:29.334Z,23.50
2018-10-16T03:20:59.604Z,23.87
2018-10-16T03:23:29.994Z,28.87
2018-10-16T03:26:00.329Z,24.67
2018-10-16T03:28:30.599Z,25.37
2018-10-16T03:31:01.017Z,26.27
2018-10-16T03:33:31.502Z,25.00
2018-10-16T03:36:01.771Z,28.03
2018-10-16T03:38:32.260Z,29.27
2018-10-16T03:41:02.483Z,27.37
2018-10-16T03:43:32.821Z,24.90
2018-10-16T03:46:03.410Z,23.67
2018-10-16T03:48:33.921Z,23.53
2018-10-16T03:51:04.452Z,25.53
2018-10-16T03:53:34.797Z,24.43
2018-10-16T03:56:05.390Z,22.50
2018-10-16T03:58:35.743Z,25.77
2018-10-16T04:01:05.876Z,27.20
2018-10-16T04:03:36.220Z,22.53
2018-10-16T04:06:06.755Z,23.03
2018-10-16T04:08:36.967Z,22.87
2018-10-16T04:11:07.502Z,22.23
2018-10-16T04:13:38.088Z,24.30
2018-10-16T04:16:08.896Z,26.03
2018-10-16T04:18:39.622Z,25.70
2018-10-16T04:21:10.851Z,34.43
2018-10-16T04:23:42.447Z,27.43
2018-10-16T04:26:13.676Z,24.43
2018-10-16T04:28:44.232Z,23.50
2018-10-16T04:31:14.705Z,24.23
2018-10-16T04:33:45.233Z,22.63
2018-10-16T04:36:15.641Z,28.13
2018-10-16T04:38:46.158Z,22.07
2018-10-16T04:41:16.443Z,25.33
2018-10-16T04:43:47.009Z,27.53
2018-10-16T04:46:17.503Z,24.17
2018-10-16T04:48:48.205Z,24.40
2018-10-16T04:51:18.608Z,25.37
2018-10-16T04:53:48.962Z,24.17
2018-10-16T04:56:19.504Z,28.47
2018-10-16T04:58:49.937Z,26.10
2018-10-16T05:01:20.522Z,25.93
2018-10-16T05:03:51.108Z,30.83
2018-10-16T05:06:21.411Z,32.20
2018-10-16T05:08:51.862Z,27.27
2018-10-16T05:11:22.283Z,30.50
2018-10-16T05:13:52.989Z,26.70
2018-10-16T05:16:23.362Z,24.97
2018-10-16T05:18:53.798Z,25.13
2018-10-16T05:21:24.158Z,25.70
2018-10-16T05:23:54.403Z,26.57
2018-10-16T05:26:24.691Z,24.27
2018-10-16T05:28:55.297Z,22.97
2018-10-16T05:31:25.666Z,22.97
2018-10-16T05:33:55.823Z,23.93
2018-10-16T05:36:26.350Z,23.17
2018-10-16T05:38:56.875Z,27.93
2018-10-16T05:41:27.219Z,20.87
2018-10-16T05:43:57.727Z,22.30
2018-10-16T05:46:28.038Z,22.80
2018-10-16T05:48:58.691Z,22.60
2018-10-16T05:51:29.019Z,23.33
2018-10-16T05:53:59.562Z,23.43
2018-10-16T05:56:29.987Z,24.40
2018-10-16T05:59:00.364Z,23.67
2018-10-16T06:01:30.726Z,24.93
2018-10-16T06:04:01.255Z,23.87
2018-10-16T06:06:31.577Z,25.37
2018-10-16T06:09:01.963Z,25.90
2018-10-16T06:11:32.373Z,21.27
2018-10-16T06:14:02.962Z,22.83
2018-10-16T06:16:33.325Z,23.93
2018-10-16T06:19:03.667Z,24.43
2018-10-16T06:21:34.084Z,26.20
2018-10-16T06:24:04.565Z,23.67
2018-10-16T06:26:35.092Z,23.30
2018-10-16T06:29:05.258Z,22.23
2018-10-16T06:31:35.752Z,23.33
2018-10-16T06:34:06.158Z,24.13
2018-10-16T06:36:36.762Z,22.17
2018-10-16T06:39:10.602Z,25.10
2018-10-16T06:41:41.120Z,22.80
2018-10-16T06:44:11.459Z,27.07
2018-10-16T06:46:41.863Z,24.20
2018-10-16T06:49:12.290Z,26.23
2018-10-16T06:51:42.688Z,26.07
2018-10-16T06:54:13.268Z,26.30
2018-10-16T06:56:43.702Z,29.13
2018-10-16T06:59:14.001Z,26.77
2018-10-16T07:01:44.508Z,28.47
2018-10-16T07:04:14.888Z,25.50
2018-10-16T07:06:45.287Z,24.40
2018-10-16T07:09:15.808Z,26.90
2018-10-16T07:11:46.084Z,22.23
2018-10-16T07:14:16.540Z,25.00
2018-10-16T07:16:47.050Z,26.87
2018-10-16T07:19:17.438Z,25.43
2018-10-16T07:21:48.191Z,22.20
2018-10-16T07:24:18.681Z,23.97
2018-10-16T07:26:48.839Z,22.20
2018-10-16T07:29:19.360Z,22.87
2018-10-16T07:31:49.779Z,25.13
2018-10-16T07:34:20.290Z,23.33
2018-10-16T07:36:50.658Z,22.93
2018-10-16T07:39:21.014Z,22.37
2018-10-16T07:41:51.489Z,28.07
2018-10-16T07:44:22.023Z,23.60
2018-10-16T07:46:52.481Z,23.97
2018-10-16T07:49:22.838Z,22.00
2018-10-16T07:51:53.205Z,23.07
2018-10-16T07:54:23.732Z,23.57
2018-10-16T07:56:54.327Z,23.87
2018-10-16T07:59:24.646Z,22.83
2018-10-16T08:01:55.033Z,23.97
2018-10-16T08:04:25.475Z,24.37
2018-10-16T08:06:55.803Z,21.10
2018-10-16T08:09:26.371Z,30.63
2018-10-16T08:11:56.477Z,23.03
2018-10-16T08:14:26.862Z,24.87
2018-10-16T08:16:57.219Z,23.23
2018-10-16T08:19:28.483Z,22.20
2018-10-16T08:21:58.869Z,23.13
2018-10-16T08:24:29.363Z,22.80
2018-10-16T08:26:59.952Z,24.30
2018-10-16T08:29:30.602Z,24.23
2018-10-16T08:32:00.757Z,25.07
2018-10-16T08:34:31.183Z,21.60
2018-10-16T08:37:01.786Z,23.33
2018-10-16T08:39:38.782Z,21.37
2018-10-16T08:43:40.130Z,22.30
2018-10-16T08:46:27.398Z,24.33
2018-10-16T08:49:14.203Z,24.20
2018-10-16T08:51:47.367Z,21.73
2018-10-16T08:54:17.780Z,23.47
2018-10-16T08:56:48.216Z,22.50
2018-10-16T08:59:18.663Z,24.10
2018-10-16T09:01:49.142Z,22.13
2018-10-16T09:04:19.547Z,24.90
2018-10-16T09:06:50.062Z,22.87
2018-10-16T09:09:20.399Z,22.10
2018-10-16T09:11:50.986Z,20.83
2018-10-16T09:14:21.156Z,20.93
2018-10-16T09:16:51.617Z,22.87
2018-10-16T09:19:22.017Z,22.67
2018-10-16T09:21:52.448Z,23.40
2018-10-16T09:24:22.875Z,27.07
2018-10-16T09:26:53.197Z,25.40
2018-10-16T09:29:23.491Z,25.77
2018-10-16T09:31:54.001Z,24.87
2018-10-16T09:34:24.476Z,26.33
2018-10-16T09:36:54.887Z,24.37
2018-10-16T09:39:25.320Z,23.87
2018-10-16T09:41:55.923Z,25.60
2018-10-16T09:44:26.287Z,26.40
2018-10-16T09:46:56.583Z,26.43
2018-10-16T09:49:26.967Z,28.57
2018-10-16T09:51:57.422Z,26.30
2018-10-16T09:54:27.644Z,26.47
2018-10-16T09:56:58.035Z,24.57
2018-10-16T09:59:29.320Z,24.33
2018-10-16T10:01:59.884Z,26.60
2018-10-16T10:04:30.028Z,25.93
2018-10-16T10:07:00.570Z,25.93
2018-10-16T10:09:31.687Z,28.63
2018-10-16T10:12:02.148Z,27.33
2018-10-16T10:14:32.744Z,26.53
2018-10-16T10:17:03.031Z,29.47
2018-10-16T10:19:36.186Z,26.67
2018-10-16T10:22:06.735Z,28.53
2018-10-16T10:24:37.305Z,25.40
2018-10-16T10:27:07.555Z,27.33
2018-10-16T10:29:37.963Z,25.10
2018-10-16T10:32:08.570Z,26.50
2018-10-16T10:34:38.914Z,25.40
2018-10-16T10:37:09.447Z,24.97
2018-10-16T10:39:39.968Z,26.27
2018-10-16T10:42:10.363Z,26.33
2018-10-16T10:44:40.818Z,26.27
2018-10-16T10:47:11.249Z,29.20
2018-10-16T10:49:41.587Z,25.17
2018-10-16T10:52:12.103Z,29.53
2018-10-16T10:54:45.438Z,26.77
2018-10-16T10:57:15.822Z,28.60
2018-10-16T10:59:46.390Z,32.43
2018-10-16T11:02:16.851Z,27.37
2018-10-16T11:04:47.111Z,28.17
2018-10-16T11:07:17.504Z,25.13
2018-10-16T11:09:47.962Z,25.20
2018-10-16T11:12:18.508Z,23.97
2018-10-16T11:14:49.113Z,23.30
2018-10-16T11:17:19.540Z,25.47
2018-10-16T11:19:49.976Z,24.23
2018-10-16T11:22:20.373Z,26.30
2018-10-16T11:24:50.713Z,25.27
2018-10-16T11:27:21.217Z,24.87
2018-10-16T11:29:51.488Z,25.37
2018-10-16T11:32:21.793Z,23.87
2018-10-16T11:34:52.112Z,22.80
2018-10-16T11:37:22.627Z,21.90
2018-10-16T11:39:52.742Z,23.30
2018-10-16T11:42:23.238Z,22.30
2018-10-16T11:44:53.707Z,22.57
2018-10-16T11:47:23.866Z,21.63
2018-10-16T11:49:54.399Z,22.33
2018-10-16T11:52:25.028Z,23.70
2018-10-16T11:54:55.368Z,23.70
2018-10-16T11:57:25.707Z,22.73
2018-10-16T11:59:55.916Z,22.70
2018-10-16T12:02:26.206Z,22.73
2018-10-16T12:04:56.429Z,23.67
2018-10-16T12:07:26.771Z,22.90
2018-10-16T12:09:56.971Z,22.50
2018-10-16T12:12:27.222Z,22.70
2018-10-16T12:14:57.520Z,21.80
2018-10-16T12:18:02.662Z,22.67
2018-10-16T12:20:38.934Z,22.20
2018-10-16T12:23:09.491Z,23.67
2018-10-16T12:25:40.001Z,22.37
2018-10-16T12:28:10.652Z,22.27
2018-10-16T12:30:40.825Z,23.07
2018-10-16T12:33:11.328Z,22.40
2018-10-16T12:35:41.664Z,22.43
2018-10-16T12:38:12.101Z,23.60
2018-10-16T12:40:42.392Z,23.17
2018-10-16T12:43:12.865Z,22.07
2018-10-16T12:45:43.230Z,24.90
2018-10-16T12:48:13.549Z,23.43
2018-10-16T12:50:43.727Z,23.30
2018-10-16T12:53:14.177Z,22.93
2018-10-16T12:55:44.938Z,24.03
2018-10-16T12:58:15.322Z,21.97
2018-10-16T13:00:45.825Z,23.90
2018-10-16T13:03:16.252Z,23.37
2018-10-16T13:05:46.531Z,22.13
2018-10-16T13:08:16.939Z,24.53
2018-10-16T13:10:47.371Z,24.33
2018-10-16T13:13:17.630Z,23.47
2018-10-16T13:15:48.191Z,26.40
2018-10-16T13:18:18.683Z,25.17
2018-10-16T13:20:49.187Z,25.90
2018-10-16T13:23:19.558Z,23.97
2018-10-16T13:25:49.807Z,23.80
2018-10-16T13:28:20.196Z,23.53
2018-10-16T13:30:50.885Z,19.33
2018-10-16T13:33:21.130Z,21.77
2018-10-16T13:35:51.818Z,25.40
2018-10-16T13:38:22.246Z,24.70
2018-10-16T13:40:52.739Z,22.60
2018-10-16T13:43:23.202Z,21.83
2018-10-16T13:45:53.538Z,22.77
2018-10-16T13:48:24.045Z,21.80
2018-10-16T13:50:54.487Z,21.57
2018-10-16T13:53:24.931Z,23.30
2018-10-16T13:55:55.349Z,21.50
2018-10-16T13:58:25.631Z,20.50
2018-10-16T14:00:55.902Z,23.27
2018-10-16T14:03:26.270Z,24.83
2018-10-16T14:05:56.671Z,21.10
2018-10-16T14:08:26.891Z,24.30
2018-10-16T14:10:57.145Z,24.27
2018-10-16T14:13:28.217Z,23.27
2018-10-16T14:15:58.948Z,24.43
2018-10-16T14:18:29.341Z,24.13
2018-10-16T14:20:59.944Z,23.47
2018-10-16T14:23:30.171Z,25.73
2018-10-16T14:26:00.473Z,23.40
2018-10-16T14:28:30.955Z,23.30
2018-10-16T14:31:01.377Z,24.43
2018-10-16T14:33:31.984Z,23.37
2018-10-16T14:36:02.420Z,23.87
2018-10-16T14:38:32.899Z,23.30
2018-10-16T14:41:03.278Z,24.30
2018-10-16T14:43:33.735Z,24.90
2018-10-16T14:46:04.131Z,23.33
2018-10-16T14:48:34.736Z,25.40
2018-10-16T14:51:05.291Z,25.73
2018-10-16T14:53:35.672Z,25.07
2018-10-16T14:56:06.338Z,25.10
2018-10-16T14:58:36.874Z,26.23
2018-10-16T15:01:07.391Z,25.17
2018-10-16T15:03:37.971Z,25.00
2018-10-16T15:06:08.131Z,23.90
2018-10-16T15:08:38.554Z,22.53
2018-10-16T15:11:08.883Z,25.67
2018-10-16T15:13:39.287Z,25.80
2018-10-16T15:16:10.105Z,25.90
2018-10-16T15:18:40.545Z,25.43
2018-10-16T15:21:11.622Z,27.20
2018-10-16T15:23:41.991Z,26.27
2018-10-16T15:26:12.458Z,26.60
2018-10-16T15:28:42.844Z,23.90
2018-10-16T15:31:13.275Z,27.40
2018-10-16T15:33:43.700Z,27.07
2018-10-16T15:36:14.114Z,27.83
2018-10-16T15:38:44.592Z,28.97
2018-10-16T15:41:15.118Z,29.43
2018-10-16T15:43:45.619Z,30.37
2018-10-16T15:46:16.116Z,29.07
2018-10-16T15:48:46.373Z,28.07
2018-10-16T15:51:16.748Z,26.03
2018-10-16T15:53:47.268Z,26.37
2018-10-16T15:56:17.712Z,30.97
2018-10-16T15:58:48.223Z,27.67
2018-10-16T16:01:18.705Z,29.17
2018-10-16T16:03:49.134Z,30.93
2018-10-16T16:06:19.649Z,28.93
2018-10-16T16:08:49.991Z,28.50
2018-10-16T16:11:20.371Z,29.47
2018-10-16T16:13:50.674Z,31.17
2018-10-16T16:16:21.007Z,29.37
2018-10-16T16:18:51.473Z,34.57
2018-10-16T16:21:21.788Z,29.37
2018-10-16T16:23:52.169Z,32.20
2018-10-16T16:26:22.558Z,30.87
2018-10-16T16:28:53.124Z,30.67
2018-10-16T16:31:23.629Z,31.93
2018-10-16T16:33:54.062Z,31.60
2018-10-16T16:36:24.371Z,34.27
2018-10-16T16:38:54.826Z,35.00
2018-10-16T16:41:25.326Z,42.80
2018-10-16T16:43:55.946Z,36.17
2018-10-16T16:46:26.239Z,31.87
2018-10-16T16:48:56.641Z,33.70
2018-10-16T16:51:26.691Z,38.13
2018-10-16T16:53:56.980Z,40.63
2018-10-16T16:56:27.456Z,37.53
2018-10-16T16:58:58.090Z,32.37
2018-10-16T17:01:28.538Z,34.60
2018-10-16T17:03:58.948Z,32.70
2018-10-16T17:06:29.365Z,34.93
2018-10-16T17:09:00.077Z,37.40
2018-10-16T17:11:31.201Z,35.13
2018-10-16T17:14:05.944Z,34.20
2018-10-16T17:16:36.875Z,31.23
2018-10-16T17:19:08.421Z,32.43
2018-10-16T17:21:38.783Z,33.80
2018-10-16T17:24:09.276Z,32.20
2018-10-16T17:26:39.790Z,32.80
2018-10-16T17:29:10.233Z,33.03
2018-10-16T17:31:40.727Z,34.77
2018-10-16T17:34:11.147Z,33.03
2018-10-16T17:36:41.363Z,36.40
2018-10-16T17:39:12.259Z,31.60
2018-10-16T17:41:42.589Z,35.77
2018-10-16T17:44:13.027Z,37.13
2018-10-16T17:46:44.041Z,41.20
2018-10-16T17:49:14.665Z,35.00
2018-10-16T17:51:44.947Z,34.20
2018-10-16T17:54:15.323Z,36.10
2018-10-16T17:56:45.699Z,36.87
2018-10-16T17:59:16.180Z,35.20
2018-10-16T18:01:46.582Z,35.00
2018-10-16T18:04:16.926Z,37.63
2018-10-16T18:06:47.418Z,35.20
2018-10-16T18:09:17.861Z,35.03
2018-10-16T18:11:48.329Z,35.60
2018-10-16T18:14:18.590Z,33.83
2018-10-16T18:16:49.072Z,36.93
2018-10-16T18:19:19.417Z,35.43
2018-10-16T18:21:49.714Z,41.90
2018-10-16T18:24:20.211Z,35.60
2018-10-16T18:26:50.662Z,35.10
2018-10-16T18:29:20.986Z,33.07
2018-10-16T18:31:51.634Z,36.37
2018-10-16T18:34:22.371Z,33.90
2018-10-16T18:36:52.772Z,54.40
2018-10-16T18:39:23.340Z,46.07
2018-10-16T18:41:53.519Z,49.10
2018-10-16T18:44:23.943Z,37.70
2018-10-16T18:46:54.421Z,34.43
2018-10-16T18:49:24.775Z,35.50
2018-10-16T18:51:55.043Z,38.53
2018-10-16T18:54:25.697Z,36.80
2018-10-16T18:56:56.579Z,39.90
2018-10-16T18:59:26.997Z,40.77
2018-10-16T19:01:57.160Z,48.90
2018-10-16T19:04:27.484Z,35.93
2018-10-16T19:06:57.910Z,33.83
2018-10-16T19:09:28.336Z,35.50
2018-10-16T19:11:58.599Z,34.97
2018-10-16T19:14:29.398Z,34.47
2018-10-16T19:16:59.835Z,35.60
2018-10-16T19:19:30.313Z,33.23
2018-10-16T19:22:00.715Z,35.10
2018-10-16T19:24:31.141Z,34.23
2018-10-16T19:27:01.620Z,36.43
2018-10-16T19:29:31.921Z,40.50
2018-10-16T19:32:02.317Z,35.70
2018-10-16T19:34:33.221Z,37.53
2018-10-16T19:37:03.819Z,36.83
2018-10-16T19:39:34.173Z,41.47
2018-10-16T19:42:04.781Z,44.57
2018-10-16T19:44:35.363Z,38.93
2018-10-16T19:47:05.839Z,43.47
2018-10-16T19:49:38.175Z,44.73
2018-10-16T19:52:08.676Z,41.03
2018-10-16T19:54:39.078Z,40.20
2018-10-16T19:57:09.704Z,39.87
2018-10-16T19:59:40.062Z,40.80
2018-10-16T20:02:10.417Z,38.53
2018-10-16T20:04:40.785Z,43.47
2018-10-16T20:07:11.115Z,44.27
2018-10-16T20:09:41.631Z,39.10
2018-10-16T20:12:12.044Z,40.03
2018-10-16T20:14:42.539Z,40.97
2018-10-16T20:17:13.150Z,38.77
2018-10-16T20:19:43.513Z,44.33
2018-10-16T20:22:13.941Z,38.70
2018-10-16T20:24:44.490Z,47.20
2018-10-16T20:27:14.797Z,37.80
2018-10-16T20:29:46.112Z,38.00
2018-10-16T20:32:16.636Z,39.50
2018-10-16T20:34:47.056Z,39.20
2018-10-16T20:37:17.450Z,38.70
2018-10-16T20:39:48.015Z,36.37
2018-10-16T20:42:18.400Z,41.97
2018-10-16T20:44:48.859Z,39.10
2018-10-16T20:47:19.040Z,43.20
2018-10-16T20:49:49.609Z,39.17
2018-10-16T20:52:20.099Z,41.37
2018-10-16T20:54:50.448Z,46.50
2018-10-16T20:57:20.977Z,35.33
2018-10-16T20:59:51.767Z,41.27
2018-10-16T21:02:22.327Z,36.97
2018-10-16T21:04:52.720Z,37.30
2018-10-16T21:07:23.063Z,38.60
2018-10-16T21:09:53.443Z,40.60
2018-10-16T21:12:23.931Z,38.27
2018-10-16T21:14:54.354Z,37.53
2018-10-16T21:17:24.851Z,40.47
2018-10-16T21:19:55.353Z,36.67
2018-10-16T21:22:25.839Z,38.57
2018-10-16T21:24:56.413Z,41.30
2018-10-16T21:27:26.857Z,40.00
2018-10-16T21:29:57.145Z,38.80
2018-10-16T21:32:27.543Z,57.30
2018-10-16T21:34:58.049Z,40.20
2018-10-16T21:37:28.498Z,40.20
2018-10-16T21:39:58.993Z,63.67
2018-10-16T21:42:29.418Z,41.27
2018-10-16T21:44:59.711Z,45.77
2018-10-16T21:47:30.226Z,47.17
2018-10-16T21:50:00.836Z,41.03
2018-10-16T21:52:31.278Z,43.93
2018-10-16T21:55:01.775Z,45.80
2018-10-16T21:57:32.243Z,40.03
2018-10-16T22:00:03.027Z,41.60
2018-10-16T22:02:38.530Z,38.60
2018-10-16T22:05:09.323Z,39.30
2018-10-16T22:07:39.774Z,40.50
2018-10-16T22:10:10.292Z,38.97
2018-10-16T22:12:40.683Z,42.23
2018-10-16T22:15:11.153Z,37.20
2018-10-16T22:17:41.293Z,40.80
2018-10-16T22:20:11.772Z,40.17
2018-10-16T22:22:42.629Z,41.60
2018-10-16T22:25:13.508Z,37.13
2018-10-16T22:27:43.984Z,44.63
2018-10-16T22:30:14.362Z,39.83
2018-10-16T22:32:44.880Z,42.17
2018-10-16T22:35:15.294Z,40.03
2018-10-16T22:37:45.615Z,42.03
2018-10-16T22:40:16.192Z,37.40
2018-10-16T22:42:46.510Z,39.73
2018-10-16T22:45:16.919Z,41.50
2018-10-16T22:47:47.439Z,39.67
2018-10-16T22:50:17.696Z,43.50
2018-10-16T22:52:48.130Z,39.90
2018-10-16T22:55:18.688Z,38.70
2018-10-16T22:57:49.185Z,37.93
2018-10-16T23:00:20.292Z,40.97
2018-10-16T23:02:50.954Z,36.87
2018-10-16T23:05:21.555Z,42.67
2018-10-16T23:07:51.787Z,41.20
2018-10-16T23:10:22.247Z,42.73
2018-10-16T23:12:57.706Z,45.70
2018-10-16T23:15:28.214Z,37.80
2018-10-16T23:17:58.889Z,40.77
2018-10-16T23:20:29.239Z,40.13
2018-10-16T23:22:59.639Z,41.40
2018-10-16T23:25:29.855Z,45.23
2018-10-16T23:28:00.342Z,39.93
2018-10-16T23:30:31.075Z,41.80
2018-10-16T23:33:01.458Z,36.57
2018-10-16T23:35:31.941Z,42.80
2018-10-16T23:38:02.195Z,42.17
2018-10-16T23:40:32.675Z,37.70
2018-10-16T23:43:03.366Z,36.40
2018-10-16T23:45:33.754Z,42.30
2018-10-16T23:48:04.317Z,37.93
2018-10-16T23:50:34.600Z,39.93
2018-10-16T23:53:05.159Z,37.83
2018-10-16T23:55:35.565Z,39.63
2018-10-16T23:58:05.969Z,40.10
